Time;durP1;ratioP1;P1;durP2;ratioP2;P2;SDS_P1;SDS_P2;PMS_P1;PMS_P2;Temp;Humidity;BMP_temperature;BMP_pressure;BME280_temperature;BME280_humidity;BME280_pressure;Samples;Min_cycle;Max_cycle;Signal;HPM_P1;HPM_P2
2021/06/06 00:01:18;;;;;;;19.33;4.85;;;;;;;17.33;64.13;101001.19;4922985;29;20142;-60
2021/06/06 00:03:54;;;;;;;22.55;5.07;;;;;;;17.25;64.61;101000.78;4923004;29;20044;-62
2021/06/06 00:06:26;;;;;;;21.07;5.73;;;;;;;17.29;64.45;101006.63;4922895;29;20083;-64
2021/06/06 00:08:54;;;;;;;19.53;5.33;;;;;;;16.96;64.66;100969.25;4922927;29;20080;-63
2021/06/06 00:11:30;;;;;;;15.67;5.13;;;;;;;16.92;64.84;100979.47;4922682;29;20052;-64
2021/06/06 00:14:00;;;;;;;17.95;3.70;;;;;;;17.18;65.11;101017.28;4923075;29;20090;-64
2021/06/06 00:16:38;;;;;;;;;;;;;;;17.04;65.81;101008.00;4923556;29;20139;-63
2021/06/06 00:19:07;;;;;;;18.00;5.37;;;;;;;16.96;65.55;100995.47;4922790;29;19923;-62
2021/06/06 00:21:35;;;;;;;12.80;4.70;;;;;;;16.78;66.56;100997.19;4923168;29;20482;-62
2021/06/06 00:24:05;;;;;;;12.23;3.17;;;;;;;16.81;66.40;101002.22;4922770;29;20135;-62
2021/06/06 00:26:32;;;;;;;21.88;5.40;;;;;;;16.84;66.33;100997.94;4922904;29;20139;-63
2021/06/06 00:28:59;;;;;;;9.90;3.07;;;;;;;16.92;66.33;101004.84;4923188;29;20048;-62
2021/06/06 00:31:27;;;;;;;17.33;5.27;;;;;;;16.72;66.83;101004.09;4922767;29;20139;-62
2021/06/06 00:33:54;;;;;;;17.30;7.73;;;;;;;16.62;67.40;101003.44;4922705;29;20052;-62
2021/06/06 00:36:22;;;;;;;22.63;6.13;;;;;;;16.69;67.02;100999.06;4922887;29;20135;-62
2021/06/06 00:38:49;;;;;;;17.80;4.87;;;;;;;16.76;66.98;101002.34;4922652;29;20048;-63
2021/06/06 00:41:19;;;;;;;18.03;5.07;;;;;;;16.69;66.84;100982.13;4923097;29;20043;-63
2021/06/06 00:43:47;;;;;;;;;;;;;;;16.92;66.53;101002.88;4923496;29;20056;-62
2021/06/06 00:46:15;;;;;;;;;;;;;;;16.89;67.33;101009.16;4923277;29;19951;-62
2021/06/06 00:48:42;;;;;;;;;;;;;;;16.62;68.52;101021.19;4923168;29;20398;-62
2021/06/06 00:51:15;;;;;;;;;;;;;;;16.52;69.19;101005.28;4923393;29;20350;-62
2021/06/06 00:53:48;;;;;;;;;;;;;;;16.69;68.08;101015.16;4923001;29;19954;-63
2021/06/06 00:56:22;;;;;;;;;;;;;;;16.81;67.71;101013.50;4906307;29;19958;-63
2021/06/06 00:58:50;;;;;;;;;;;;;;;16.84;67.77;101002.75;4906359;29;19970;-63
2021/06/06 01:01:17;;;;;;;;;;;;;;;16.92;67.24;101007.66;4922878;29;19923;-63
2021/06/06 01:03:46;;;;;;;;;;;;;;;16.89;67.45;100997.00;4922048;29;19957;-63
2021/06/06 01:06:19;;;;;;;;;;;;;;;16.92;67.81;100993.56;4919822;29;19977;-63
2021/06/06 01:08:45;;;;;;;;;;;;;;;16.67;68.30;100990.06;4919971;29;20021;-63
2021/06/06 01:11:30;;;;;;;;;;;;;;;16.32;69.62;100983.94;4919906;29;20021;-62
2021/06/06 01:14:05;;;;;;;;;;;;;;;16.19;70.03;100990.38;4919933;29;20383;-62
2021/06/06 01:16:34;;;;;;;;;;;;;;;16.13;70.62;100983.13;4919654;29;20021;-63
2021/06/06 01:19:04;;;;;;;;;;;;;;;16.04;70.88;100979.38;4919792;29;19970;-62
2021/06/06 01:21:39;;;;;;;;;;;;;;;15.97;71.10;100976.09;4919839;29;19974;-62
2021/06/06 01:24:09;;;;;;;;;;;;;;;16.05;71.03;100979.03;4920020;29;20002;-62
2021/06/06 01:26:43;;;;;;;;;;;;;;;16.05;70.81;100972.56;4919822;29;19929;-62
2021/06/06 01:29:26;;;;;;;;;;;;;;;16.05;70.92;100978.22;4919961;29;19977;-63
2021/06/06 01:31:54;;;;;;;;;;;;;;;16.00;71.18;100981.09;4919658;29;19923;-62
2021/06/06 01:34:23;;;;;;;;;;;;;;;16.04;71.01;100976.53;4919479;29;19930;-62
2021/06/06 01:36:53;;;;;;;;;;;;;;;16.11;71.14;100980.63;4919424;29;20010;-63
2021/06/06 01:39:23;;;;;;;;;;;;;;;16.16;70.68;100978.88;4919289;29;19930;-63
2021/06/06 01:41:54;;;;;;;;;;;;;;;16.28;70.58;100982.88;4919682;29;20010;-63
2021/06/06 01:44:24;;;;;;;;;;;;;;;16.34;70.28;100987.28;4919571;29;20014;-62
2021/06/06 01:46:59;;;;;;;;;;;;;;;16.42;70.14;100982.09;4919244;29;19923;-63
2021/06/06 01:49:27;;;;;;;;;;;;;;;16.49;69.92;100977.72;4919466;29;19922;-63
2021/06/06 01:51:56;;;;;;;;;;;;;;;16.44;69.89;100969.34;4918775;29;20021;-62
2021/06/06 01:54:25;;;;;;;;;;;;;;;16.43;69.98;100975.31;4919123;29;20018;-63
2021/06/06 01:56:52;;;;;;;;;;;;;;;16.43;69.81;100969.66;4919088;29;19995;-62
2021/06/06 01:59:29;;;;;;;;;;;;;;;16.40;69.99;100971.09;4919396;29;19966;-61
2021/06/06 02:01:56;;;;;;;;;;;;;;;16.30;70.11;100969.31;4919251;29;20013;-61
2021/06/06 02:04:23;;;;;;;;;;;;;;;16.29;70.21;100973.28;4919261;29;19923;-61
2021/06/06 02:06:54;;;;;;;;;;;;;;;16.22;70.14;100961.56;4919158;29;19922;-59
2021/06/06 02:09:23;;;;;;;;;;;;;;;16.19;70.43;100959.38;4918827;29;20026;-59
2021/06/06 02:11:52;;;;;;;;;;;;;;;16.16;70.72;100956.34;4918725;29;19923;-58
2021/06/06 02:14:21;;;;;;;;;;;;;;;16.14;70.64;100959.47;4919035;29;19935;-61
2021/06/06 02:16:54;;;;;;;;;;;;;;;16.14;70.63;100955.78;4918347;29;20010;-60
2021/06/06 02:19:25;;;;;;;;;;;;;;;16.23;70.50;100956.78;4918481;29;19962;-60
2021/06/06 02:21:53;;;;;;;;;;;;;;;16.30;70.29;100945.94;4918924;29;19923;-61
2021/06/06 02:24:20;;;;;;;;;;;;;;;16.33;69.78;100945.31;4918831;29;20051;-61
2021/06/06 02:26:52;;;;;;;;;;;;;;;16.32;69.83;100947.28;4918424;29;20047;-62
2021/06/06 02:29:19;;;;;;;;;;;;;;;16.28;70.17;100951.88;4919064;29;19954;-62
2021/06/06 02:32:07;;;;;;;;;;;;;;;16.27;70.33;100957.81;4918424;29;19923;-62
2021/06/06 02:34:37;;;;;;;;;;;;;;;16.17;70.49;100953.22;4918788;29;19946;-61
2021/06/06 02:37:08;;;;;;;;;;;;;;;16.19;70.35;100952.91;4918178;29;19970;-62
2021/06/06 02:39:36;;;;;;;;;;;;;;;16.20;70.38;100955.41;4918318;29;20018;-62
2021/06/06 02:42:29;;;;;;;;;;;;;;;16.27;69.74;100953.03;4918207;29;20025;-62
2021/06/06 02:45:11;;;;;;;;;;;;;;;16.42;69.48;100945.44;4916441;29;19934;-62
2021/06/06 02:47:38;;;;;;;;;;;;;;;16.50;69.51;100945.56;4918487;29;20037;-62
2021/06/06 02:50:11;;;;;;;;;;;;;;;16.43;69.41;100938.66;4918105;29;20014;-62
2021/06/06 02:52:44;;;;;;;;;;;;;;;16.44;69.40;100937.50;4918141;29;20375;-62
2021/06/06 02:55:19;;;;;;;;;;;;;;;16.41;69.67;100940.94;4918302;29;20286;-62
2021/06/06 02:57:50;;;;;;;;;;;;;;;16.42;69.89;100945.44;4918109;29;19970;-62
2021/06/06 03:00:20;;;;;;;;;;;;;;;16.46;69.38;100944.50;4918190;29;19959;-63
2021/06/06 03:02:50;;;;;;;;;;;;;;;16.38;69.59;100942.41;4917870;29;19923;-61
2021/06/06 03:05:18;;;;;;;;;;;;;;;16.32;70.05;100949.28;4918189;29;20031;-60
2021/06/06 03:07:47;;;;;;;;;;;;;;;16.28;69.91;100948.25;4918122;29;19993;-60
2021/06/06 03:10:15;;;;;;;;;;;;;;;16.26;70.03;100956.97;4918021;29;20006;-60
2021/06/06 03:12:43;;;;;;;;;;;;;;;16.23;70.22;100951.97;4918087;29;20005;-60
2021/06/06 03:15:11;;;;;;;;;;;;;;;16.25;69.99;100948.84;4917988;29;19927;-62
2021/06/06 03:17:40;;;;;;;;;;;;;;;16.23;69.95;100940.69;4917777;29;19955;-63
2021/06/06 03:20:10;;;;;;;;;;;;;;;16.20;69.92;100935.66;4917894;29;19958;-62
2021/06/06 03:22:38;;;;;;;;;;;;;;;16.16;70.12;100934.63;4917912;29;19923;-60
2021/06/06 03:25:18;;;;;;;;;;;;;;;16.11;70.45;100934.72;4917566;29;20025;-61
2021/06/06 03:27:45;;;;;;;;;;;;;;;16.18;70.35;100931.50;4917137;29;20021;-61
2021/06/06 03:30:14;;;;;;;;;;;;;;;16.20;70.15;100930.03;4917840;29;19958;-61
2021/06/06 03:32:42;;;;;;;;;;;;;;;16.20;69.95;100932.84;4917862;29;19930;-61
2021/06/06 03:35:10;;;;;;;;;;;;;;;16.15;70.29;100927.31;4917571;29;19974;-61
2021/06/06 03:37:37;;;;;;;;;;;;;;;16.14;70.03;100931.28;4917430;29;20371;-61
2021/06/06 03:40:05;;;;;;;;;;;;;;;16.10;70.21;100933.91;4917441;29;19965;-61
2021/06/06 03:42:32;;;;;;;;;;;;;;;16.11;70.60;100923.47;4917230;29;19962;-61
2021/06/06 03:44:58;;;;;;;;;;;;;;;16.01;70.73;100920.81;4917390;29;19981;-63
2021/06/06 03:47:25;;;;;;;;;;;;;;;15.88;71.40;100916.81;4917490;29;19981;-64
2021/06/06 03:49:52;;;;;;;;;;;;;;;15.81;71.84;100924.81;4917301;29;19974;-65
2021/06/06 03:52:18;;;;;;;;;;;;;;;15.76;72.04;100924.88;4917251;29;20034;-66
2021/06/06 03:54:45;;;;;;;;;;;;;;;15.78;71.98;100926.25;4917249;29;20022;-66
2021/06/06 03:57:12;;;;;;;;;;;;;;;15.73;72.32;100936.78;4917379;29;20305;-66
2021/06/06 03:59:39;;;;;;;;;;;;;;;15.69;72.48;100936.56;4917521;29;20022;-66
2021/06/06 04:02:05;;;;;;;;;;;;;;;15.68;72.63;100936.84;4917183;29;20022;-66
2021/06/06 04:04:33;;;;;;;;;;;;;;;15.69;72.66;100942.19;4917486;29;20323;-65
2021/06/06 04:07:00;;;;;;;;;;;;;;;15.71;72.55;100934.25;4917170;29;19973;-66
2021/06/06 04:09:27;;;;;;;;;;;;;;;15.78;72.38;100928.25;4917966;29;20049;-65
2021/06/06 04:11:55;;;;;;;;;;;;;;;15.90;72.24;100933.38;4917140;29;19923;-66
2021/06/06 04:14:21;;;;;;;;;;;;;;;15.82;72.43;100932.94;4917117;29;19923;-65
2021/06/06 04:16:48;;;;;;;;;;;;;;;16.08;71.50;100932.53;4917288;29;19927;-66
2021/06/06 04:19:15;;;;;;;;;;;;;;;16.52;69.88;100948.06;4916951;29;19923;-66
2021/06/06 04:21:41;;;;;;;;;;;;;;;16.71;69.30;100946.00;4916966;29;19922;-66
2021/06/06 04:24:08;;;;;;;;;;;;;;;16.67;69.19;100953.41;4917265;29;20009;-63
2021/06/06 04:26:35;;;;;;;;;;;;;;;16.76;68.83;100945.94;4917270;29;19923;-60
2021/06/06 04:29:01;;;;;;;;;;;;;;;16.68;69.24;100940.97;4917266;29;20013;-60
2021/06/06 04:31:29;;;;;;;;;;;;;;;16.75;68.64;100940.59;4917715;29;20002;-60
2021/06/06 04:33:56;;;;;;;;;;;;;;;16.77;68.39;100943.94;4916892;29;19979;-62
2021/06/06 04:36:22;;;;;;;;;;;;;;;16.70;68.87;100940.69;4917231;29;19965;-61
2021/06/06 04:38:49;;;;;;;;;;;;;;;16.75;68.66;100946.22;4918222;29;20022;-63
2021/06/06 04:41:16;;;;;;;;;;;;;;;16.62;68.96;100947.03;4903502;29;19973;-61
2021/06/06 04:43:42;;;;;;;;;;;;;;;16.56;69.50;100943.47;4903869;29;20004;-61
2021/06/06 04:46:09;;;;;;;;;;;;;;;16.69;68.77;100948.31;4920253;29;19959;-59
2021/06/06 04:48:38;;;;;;;;;;;;;;;16.41;70.11;100946.56;4920310;29;19927;-60
2021/06/06 04:51:06;;;;;;;;;;;;;;;16.25;70.48;100946.88;4920561;29;19951;-60
2021/06/06 04:53:33;;;;;;;;;;;;;;;16.41;69.65;100946.56;4920547;29;20009;-59
2021/06/06 04:56:01;;;;;;;;;;;;;;;16.51;69.57;100946.38;4920048;29;20038;-59
2021/06/06 04:58:29;;;;;;;;;;;;;;;16.64;69.21;100961.66;4919077;29;20368;-61
2021/06/06 05:00:56;;;;;;;;;;;;;;;16.69;68.82;100955.94;4920341;29;19958;-59
2021/06/06 05:03:23;;;;;;;;;;;;;;;16.80;68.34;100958.25;4920033;29;19923;-60
2021/06/06 05:05:50;;;;;;;;;;;;;;;16.97;67.98;100968.09;4920337;29;19923;-60
2021/06/06 05:08:18;;;;;;;;;;;;;;;17.10;67.35;100958.78;4919964;29;20021;-60
2021/06/06 05:10:45;;;;;;;;;;;;;;;17.21;67.27;100960.22;4919940;29;19923;-59
2021/06/06 05:13:12;;;;;;;;;;;;;;;17.19;67.22;100956.88;4919834;29;20022;-59
2021/06/06 05:15:39;;;;;;;;;;;;;;;17.16;67.22;100965.13;4920057;29;20112;-62
2021/06/06 05:18:06;;;;;;;;;;;;;;;17.03;67.46;100966.84;4919907;29;20018;-65
2021/06/06 05:20:35;;;;;;;;;;;;;;;16.95;67.48;100959.09;4919800;29;20022;-61
2021/06/06 05:23:02;;;;;;;;;;;;;;;16.79;67.97;100962.22;4919714;29;19923;-67
2021/06/06 05:25:29;;;;;;;;;;;;;;;16.84;67.68;100975.38;4919949;29;19980;-60
2021/06/06 05:27:56;;;;;;;;;;;;;;;16.88;67.56;100967.13;4919826;29;20001;-59
2021/06/06 05:30:25;;;;;;;;;;;;;;;17.00;67.17;100973.09;4919500;29;19927;-58
2021/06/06 05:32:53;;;;;;;;;;;;;;;17.07;66.89;100981.97;4919323;29;19973;-58
2021/06/06 05:35:20;;;;;;;;;;;;;;;17.12;66.81;100979.03;4919545;29;19926;-56
2021/06/06 05:37:48;;;;;;;;;;;;;;;17.15;66.98;100981.22;4919293;29;19930;-57
2021/06/06 05:40:15;;;;;;;;;;;;;;;17.17;66.59;100976.13;4919595;29;20013;-59
2021/06/06 05:42:44;;;;;;;;;;;;;;;17.25;66.32;100981.03;4919635;29;19923;-58
2021/06/06 05:45:11;;;;;;;;;;;;;;;17.16;66.69;100987.72;4919273;29;20455;-58
2021/06/06 05:47:38;;;;;;;;;;;;;;;17.07;66.95;100986.78;4919414;29;19923;-58
2021/06/06 05:50:05;;;;;;;;;;;;;;;17.07;67.14;100989.63;4918196;29;19948;-59
2021/06/06 05:52:32;;;;;;;;;;;;;;;16.80;68.08;100989.28;4919197;29;20017;-59
2021/06/06 05:54:59;;;;;;;;;;;;;;;16.66;68.65;100982.75;4919451;29;20005;-60
2021/06/06 05:57:26;;;;;;;;;;;;;;;16.52;69.08;100987.53;4918949;29;20021;-61
2021/06/06 05:59:53;;;;;;;;;;;;;;;16.57;68.59;100991.09;4919059;29;19998;-60
2021/06/06 06:02:20;;;;;;;;;;;;;;;16.61;68.67;100993.28;4918890;29;20018;-60
2021/06/06 06:04:47;;;;;;;;;;;;;;;16.58;69.01;101001.25;4918918;29;19969;-64
2021/06/06 06:07:13;;;;;;;;;;;;;;;16.56;68.83;100999.88;4902450;29;20013;-64
2021/06/06 06:09:40;;;;;;;;;;;;;;;16.64;68.79;100996.31;4918963;29;19969;-66
2021/06/06 06:12:07;;;;;;;;;;;;;;;16.37;69.39;100994.28;4901940;29;20009;-62
2021/06/06 06:14:34;;;;;;;;;;;;;;;16.38;69.15;100995.13;4918901;29;19923;-60
2021/06/06 06:17:01;;;;;;;;;;;;;;;16.33;69.54;101001.69;4918606;29;19923;-59
2021/06/06 06:19:27;;;;;;;;;;;;;;;16.46;69.07;101000.06;4918421;29;19923;-60
2021/06/06 06:21:54;;;;;;;;;;;;;;;16.51;68.94;101011.22;4918841;29;20009;-59
2021/06/06 06:24:21;;;;;;;;;;;;;;;16.43;69.21;101006.31;4918523;29;20447;-59
2021/06/06 06:26:47;;;;;;;;;;;;;;;16.23;69.97;101008.31;4918520;29;19922;-59
2021/06/06 06:29:14;;;;;;;;;;;;;;;16.20;69.99;101003.31;4918930;29;20407;-61
2021/06/06 06:31:44;;;;;;;;;;;;;;;16.09;70.47;101007.44;4918641;29;20022;-62
2021/06/06 06:34:11;;;;;;;;;;;;;;;16.09;70.61;101005.44;4918636;29;19959;-59
2021/06/06 06:36:38;;;;;;;;;;;;;;;16.19;70.16;101007.28;4918213;29;20399;-62
2021/06/06 06:39:05;;;;;;;;;;;;;;;16.25;69.95;100999.56;4918106;29;19970;-67
2021/06/06 06:41:32;;;;;;;;;;;;;;;16.52;69.04;101007.28;4918139;29;20029;-63
2021/06/06 06:43:59;;;;;;;;;;;;;;;16.23;70.08;101008.31;4901496;29;20021;-63
2021/06/06 06:46:26;;;;;;;;;;;;;;;16.51;69.32;101008.41;4918046;29;20014;-59
2021/06/06 06:48:54;;;;;;;;;;;;;;;16.53;69.21;101008.94;4918356;29;19923;-58
2021/06/06 06:51:21;;;;;;;;;;;;;;;16.59;69.05;101004.88;4918050;29;20034;-59
2021/06/06 06:53:50;;;;;;;;;;;;;;;16.67;68.58;101011.78;4917912;29;20017;-59
2021/06/06 06:56:17;;;;;;;;;;;;;;;16.81;68.33;101013.50;4918306;29;20293;-59
2021/06/06 06:58:44;;;;;;;;;;;;;;;16.84;68.40;101014.88;4918159;29;20014;-59
2021/06/06 07:01:10;;;;;;;;;;;;;;;16.96;67.89;101006.75;4918158;29;19974;-59
2021/06/06 07:03:37;;;;;;;;;;;;;;;17.09;67.27;101007.88;4918143;29;20009;-60
2021/06/06 07:06:05;;;;;;;;;;;;;;;17.12;67.36;101018.53;4917823;29;19923;-59
2021/06/06 07:08:33;;;;;;;;;;;;;;;17.32;67.02;101010.81;4917732;29;20030;-59
2021/06/06 07:11:00;;;;;;;;;;;;;;;17.23;66.97;101008.75;4917531;29;19970;-60
2021/06/06 07:13:27;;;;;;;;;;;;;;;17.17;67.51;101011.97;4917142;29;19922;-59
2021/06/06 07:15:58;;;;;;;;;;;;;;;17.22;67.20;101011.84;4917188;29;19927;-59
2021/06/06 07:18:25;;;;;;;;;;;;;;;17.35;66.82;101018.66;4917066;29;20323;-60
2021/06/06 07:20:53;;;;;;;;;;;;;;;17.47;66.36;101016.97;4917727;29;20447;-59
2021/06/06 07:23:21;;;;;;;;;;;;;;;17.48;66.38;101020.63;4917532;29;19971;-59
2021/06/06 07:25:48;;;;;;;;;;;;;;;17.42;66.75;101016.25;4917611;29;20017;-60
2021/06/06 07:28:16;;;;;;;;;;;;;;;17.42;66.63;101025.53;4917345;29;20002;-60
2021/06/06 07:30:48;;;;;;;;;;;;;;;17.40;66.29;101019.41;4917678;29;20018;-59
2021/06/06 07:33:16;;;;;;;;;;;;;;;17.37;66.26;101030.47;4917479;29;20279;-59
2021/06/06 07:35:43;;;;;;;;;;;;;;;17.57;65.66;101030.00;4917155;29;19969;-60
2021/06/06 07:38:10;;;;;;;;;;;;;;;17.68;65.56;101037.13;4917302;29;19929;-60
2021/06/06 07:40:39;;;;;;;;;;;;;;;17.80;65.68;101038.59;4917021;29;20335;-60
2021/06/06 07:43:07;;;;;;;;;;;;;;;17.96;65.85;101039.91;4917846;29;20411;-60
2021/06/06 07:45:34;;;;;;;;;;;;;;;18.15;65.44;101037.75;4917115;29;19923;-60
2021/06/06 07:48:00;;;;;;;;;;;;;;;18.36;65.22;101034.41;4917060;29;20386;-60
2021/06/06 07:50:30;;;;;;;;;;;;;;;18.58;64.87;101036.41;4917118;29;19923;-60
2021/06/06 07:52:57;;;;;;;;;;;;;;;18.78;64.89;101029.41;4916991;29;19923;-60
2021/06/06 07:55:24;;;;;;;;;;;;;;;18.87;64.69;101031.13;4916973;29;20046;-60
2021/06/06 07:57:51;;;;;;;;;;;;;;;19.00;64.56;101032.16;4916864;29;20023;-60
2021/06/06 08:00:20;;;;;;;;;;;;;;;19.29;64.52;101025.97;4916980;29;19967;-60
2021/06/06 08:02:46;;;;;;;;;;;;;;;19.51;64.04;101030.69;4916910;29;19923;-60
2021/06/06 08:05:13;;;;;;;;;;;;;;;19.78;64.04;101029.59;4916910;29;20362;-60
2021/06/06 08:07:41;;;;;;;;;;;;;;;20.10;64.09;101025.47;4916787;29;20344;-59
2021/06/06 08:10:09;;;;;;;;;;;;;;;20.51;63.72;101035.47;4916827;29;20011;-60
2021/06/06 08:12:35;;;;;;;;;;;;;;;20.92;63.60;101028.38;4917230;29;20026;-60
2021/06/06 08:15:03;;;;;;;;;;;;;;;21.41;62.92;101040.22;4920131;29;19934;-59
2021/06/06 08:17:30;;;;;;;;;;;;;;;21.69;62.94;101037.69;4920340;29;20429;-60
2021/06/06 08:20:01;;;;;;;;;;;;;;;21.88;62.92;101036.38;4920918;29;20022;-60
2021/06/06 08:22:28;;;;;;;;;;;;;;;22.01;62.32;101041.81;4920522;29;19978;-60
2021/06/06 08:24:55;;;;;;;;;;;;;;;21.98;62.29;101042.53;4920787;29;19973;-60
2021/06/06 08:27:22;;;;;;;;;;;;;;;22.23;61.85;101037.00;4920807;29;20010;-60
2021/06/06 08:29:48;;;;;;;;;;;;;;;22.41;62.03;101038.50;4920726;29;19994;-59
2021/06/06 08:32:15;;;;;;;;;;;;;;;22.45;62.21;101039.44;4920185;29;20022;-59
2021/06/06 08:34:42;;;;;;;;;;;;;;;22.45;61.83;101039.44;4920425;29;19934;-60
2021/06/06 08:37:09;;;;;;;;;;;;;;;22.86;61.54;101034.84;4920355;29;19969;-59
2021/06/06 08:39:36;;;;;;;;;;;;;;;23.56;60.62;101037.69;4920004;29;19963;-60
2021/06/06 08:42:05;;;;;;;;;;;;;;;24.09;60.35;101037.75;4920273;29;20013;-60
2021/06/06 08:44:33;;;;;;;;;;;;;;;24.63;59.27;101034.47;4920375;29;20372;-59
2021/06/06 08:47:05;;;;;;;;;;;;;;;25.04;58.77;101038.03;4919836;29;19923;-59
2021/06/06 08:49:56;;;;;;;;;;;;;;;25.15;58.34;101038.34;4920233;29;19977;-59
2021/06/06 08:52:23;;;;;;;;;;;;;;;25.21;58.58;101037.72;4900913;29;19958;-59
2021/06/06 08:55:07;;;;;;;;;;;;;;;25.53;58.01;101034.81;4920313;29;19962;-59
2021/06/06 08:57:43;;;;;;;;;;;;;;;25.74;57.30;101031.66;4903192;29;19923;-59
2021/06/06 09:00:22;;;;;;;;;;;;;;;25.53;56.56;101038.50;4920157;29;20030;-58
2021/06/06 09:02:50;;;;;;;;;;;;;;;25.23;56.77;101029.59;4903075;29;19965;-59
2021/06/06 09:05:32;;;;;;;;;;;;;;;25.22;56.74;101032.81;4919959;29;19983;-59
2021/06/06 09:08:00;;;;;;;;;;;;;;;25.29;56.94;101033.81;4919927;29;19965;-59
2021/06/06 09:10:31;;;;;;;;;;;;;;;25.51;56.51;101034.38;4920114;29;19923;-62
2021/06/06 09:13:00;;;;;;;;;;;;;;;25.90;55.90;101040.22;4919480;29;19977;-62
2021/06/06 09:15:27;;;;;;;;;;;;;;;26.30;55.53;101037.03;4920040;29;19965;-64
2021/06/06 09:17:58;;;;;;;;;;;;;;;26.60;54.92;101031.56;4919877;29;19985;-62
2021/06/06 09:20:37;;;;;;;;;;;;;;;26.54;53.98;101035.94;4920086;29;19923;-62
2021/06/06 09:23:05;;;;;;;;;;;;;;;26.08;54.13;101027.16;4919790;29;19945;-64
2021/06/06 09:25:37;;;;;;;;;;;;;;;25.93;54.86;101028.03;4918368;29;19979;-65
2021/06/06 09:28:09;;;;;;;;;;;;;;;26.34;54.44;101034.25;4919361;29;20007;-64
2021/06/06 09:30:37;;;;;;;;;;;;;;;26.69;53.73;101026.41;4919731;29;20017;-64
2021/06/06 09:33:20;;;;;;;;;;;;;;;26.84;53.38;101033.28;4919827;29;20406;-64
2021/06/06 09:35:52;;;;;;;;;;;;;;;27.17;52.97;101028.97;4919576;29;20026;-65
2021/06/06 09:38:23;;;;;;;;;;;;;;;27.55;52.68;101039.44;4919124;29;19923;-65
2021/06/06 09:40:51;;;;;;;;;;;;;;;27.88;52.23;101032.22;4902648;29;20013;-65
2021/06/06 09:43:43;;;;;;;;;;;;;;;28.11;51.68;101030.09;4919281;29;20021;-70
2021/06/06 09:46:15;;;;;;;;;;;;;;;28.37;51.48;101034.09;4904697;29;20468;-70
2021/06/06 09:48:44;;;;;;;;;;;;;;;28.54;51.37;101030.66;4902408;29;19973;-70
2021/06/06 09:51:15;;;;;;;;;;;;;;;28.72;50.84;101032.94;4919294;29;20021;-71
2021/06/06 09:53:43;;;;;;;;;;;;;;;28.77;50.92;101030.50;4919355;29;19923;-77
2021/06/06 09:56:16;;;;;;;;;;;;;;;28.95;50.39;101033.56;4919415;29;20018;-78
2021/06/06 09:58:43;;;;;;;;;;;;;;;29.08;50.57;101034.16;4919676;29;19977;-80
2021/06/06 10:01:29;;;;;;;;;;;;;;;29.17;50.06;101030.97;4919351;29;19951;-63
2021/06/06 10:04:05;;;;;;;;;;;;;;;29.10;50.02;101037.47;4919096;29;19923;-62
2021/06/06 10:06:38;;;;;;;;;;;;;;;28.69;50.10;101039.47;4919332;29;20014;-62
2021/06/06 10:09:05;;;;;;;;;;;;;;;28.30;50.30;101028.25;4918989;29;20030;-62
2021/06/06 10:11:41;;;;;;;;;;;;;;;28.36;50.28;101029.59;4918926;29;19962;-61
2021/06/06 10:14:08;;;;;;;;;;;;;;;28.62;49.52;101034.47;4918913;29;19930;-61
2021/06/06 10:16:36;;;;;;;;;;;;;;;28.79;49.41;101024.38;4901985;29;20013;-61
2021/06/06 10:19:08;;;;;;;;;;;;;;;28.98;49.34;101032.78;4918510;29;19970;-62
2021/06/06 10:21:36;;;;;;;;;;;;;;;28.99;49.26;101030.72;4919065;29;19930;-61
2021/06/06 10:24:09;;;;;;;;;;;;;;;28.99;49.34;101024.97;4918670;29;20042;-61
2021/06/06 10:26:56;;;;;;;;;;;;;;;29.07;49.28;101017.31;4918599;29;19930;-61
2021/06/06 10:29:26;;;;;;;;;;;;;;;29.23;48.74;101024.44;4918442;29;19927;-62
2021/06/06 10:31:54;;;;;;;;;;;;;;;29.22;48.92;101024.81;4918386;29;20472;-61
2021/06/06 10:34:30;;;;;;;;;;;;;;;28.94;48.50;101023.31;4918461;29;20029;-61
2021/06/06 10:36:57;;;;;;;;;;;;;;;28.78;48.87;101022.72;4918052;29;19969;-62
2021/06/06 10:39:28;;;;;;;;;;;;;;;28.78;48.77;101028.47;4919433;29;19930;-62
2021/06/06 10:41:54;;;;;;;;;;;;;;;28.51;49.15;101034.34;4918306;29;20023;-61
2021/06/06 10:44:32;;;;;;;;;;;;;;;28.78;48.73;101020.66;4918292;29;19974;-62
2021/06/06 10:47:02;;;;;;;;;;;;;;;29.08;48.59;101022.66;4918167;29;19977;-61
2021/06/06 10:49:35;;;;;;;;;;;;;;;29.31;47.97;101024.50;4918198;29;19958;-62
2021/06/06 10:52:04;;;;;;;;;;;;;;;29.51;47.81;101020.97;4918535;29;20009;-62
2021/06/06 10:54:41;;;;;;;;;;;;;;;29.62;47.63;101023.13;4918240;29;19962;-62
2021/06/06 10:57:08;;;;;;;;;;;;;;;29.61;46.93;101021.50;4918331;29;20339;-62
2021/06/06 10:59:38;;;;;;;;;;;;;;;29.31;47.85;101019.56;4917848;29;19923;-63
2021/06/06 11:02:06;;;;;;;;;;;;;;;29.47;48.10;101017.25;4917967;29;20017;-62
2021/06/06 11:04:34;;;;;;;;;;;;;;;29.74;47.64;101014.16;4918163;29;19927;-62
2021/06/06 11:07:04;;;;;;;;;;;;;;;29.83;47.33;101023.28;4917901;29;20058;-63
2021/06/06 11:09:33;;;;;;;;;;;;;;;29.53;47.41;101014.81;4918081;29;19958;-62
2021/06/06 11:12:09;;;;;;;;;;;;;;;29.48;46.80;101018.88;4918062;29;20295;-62
2021/06/06 11:14:48;;;;;;;;;;;;;;;29.26;47.45;101012.13;4918369;29;20372;-61
2021/06/06 11:17:28;;;;;;;;;;;;;;;29.18;47.43;101010.41;4917348;29;19958;-60
2021/06/06 11:20:06;;;;;;;;;;;;;;;29.14;47.74;101018.19;4917660;29;19999;-60
2021/06/06 11:22:39;;;;;;;;;;;;;;;29.30;47.50;101009.31;4917522;29;20005;-60
2021/06/06 11:25:07;;;;;;;;;;;;;;;29.52;47.38;101011.09;4917741;29;20022;-60
2021/06/06 11:27:36;;;;;;;;;;;;;;;29.62;47.43;101011.63;4917563;29;20350;-58
2021/06/06 11:30:21;;;;;;;;;;;;;;;29.56;46.66;101007.44;4917594;29;19954;-57
2021/06/06 11:32:59;;;;;;;;;;;;;;;29.42;46.43;101011.03;4917536;29;19958;-62
2021/06/06 11:35:35;;;;;;;;;;;;;;;29.45;46.71;101004.47;4917454;29;19930;-59
2021/06/06 11:38:14;;;;;;;;;;;;;;;29.55;46.60;101011.53;4901380;29;20324;-64
2021/06/06 11:40:43;;;;;;;;;;;;;;;29.67;46.69;101011.25;4917092;29;19923;-63
2021/06/06 11:43:29;;;;;;;;;;;;;;;29.85;46.97;101000.69;4917265;29;20022;-63
2021/06/06 11:46:09;;;;;;;;;;;;;;;29.97;46.58;101005.25;4917134;29;20450;-64
2021/06/06 11:48:44;;;;;;;;;;;;;;;30.31;46.20;101003.00;4916672;29;20377;-64
2021/06/06 11:51:22;;;;;;;;;;;;;;;30.62;44.92;101012.16;4916946;29;20018;-64
2021/06/06 11:53:49;;;;;;;;;;;;;;;30.44;44.85;101006.34;4917568;29;19962;-64
2021/06/06 11:56:18;;;;;;;;;;;;;;;30.49;45.06;101008.00;4917488;29;20340;-64
2021/06/06 11:58:48;;;;;;;;;;;;;;;30.20;44.53;101007.88;4917203;29;20046;-64
2021/06/06 12:01:18;;;;;;;;;;;;;;;29.84;45.30;101003.94;4917547;29;19957;-64
2021/06/06 12:03:46;;;;;;;;;;;;;;;30.08;44.95;101005.31;4917034;29;19952;-64
2021/06/06 12:06:26;;;;;;;;;;;;;;;30.42;43.97;101006.72;4917516;29;19930;-64
2021/06/06 12:08:54;;;;;;;;;;;;;;;30.80;42.19;101009.34;4918273;29;19958;-64
2021/06/06 12:11:23;;;;;;;;;;;;;;;31.08;41.14;101003.63;4917162;29;19966;-65
2021/06/06 12:13:52;;;;;;;;;;;;;;;31.69;40.28;100994.97;4917120;29;20021;-65
2021/06/06 12:16:21;;;;;;;;;;;;;;;32.53;38.43;101008.78;4917493;29;19957;-65
2021/06/06 12:19:01;;;;;;;;;;;;;;;33.09;36.53;101000.19;4916885;29;19930;-64
2021/06/06 12:21:27;;;;;;;;;;;;;;;33.29;36.32;100998.38;4917481;29;20002;-64
2021/06/06 12:24:10;;;;;;;;;;;;;;;33.65;35.61;100998.91;4917086;29;20023;-64
2021/06/06 12:26:39;;;;;;;;;;;;;;;33.97;34.70;100998.53;4917002;29;19969;-64
2021/06/06 12:29:06;;;;;;;;;;;;;;;34.28;34.64;100998.63;4900341;29;20019;-64
2021/06/06 12:31:37;;;;;;;;;;;;;;;34.77;33.88;100992.59;4900207;29;19927;-64
2021/06/06 12:34:10;;;;;;;;;;;;;;;35.61;33.35;100994.56;4916946;29;19923;-65
2021/06/06 12:36:37;;;;;;;;;;;;;;;36.45;31.27;100990.41;4917220;29;20351;-64
2021/06/06 12:39:06;;;;;;;;;;;;;;;36.41;31.69;101000.47;4916861;29;20021;-64
2021/06/06 12:41:38;;;;;;;;;;;;;;;36.49;31.72;100997.00;4916880;29;19962;-64
2021/06/06 12:44:06;;;;;;;;;;;;;;;36.19;32.49;101000.94;4916916;29;19974;-64
2021/06/06 12:46:42;;;;;;;;;;;;;;;36.26;32.68;100991.25;4917141;29;20316;-64